Lone Tree, Colorado
Current Conditions -  °F | °C
As of 12:53 PM on Tuesday 21 Oct 2014 (Local Time) from KAPA Reporting Station
Scattered Clouds Scattered Clouds  
Wind Chill: 72°   Ceiling: Unl
Heat Index: 72°   Visibility: 10mi
Dew Point: 32°   Wind: 5mph
Humidity: 23%   Direction: NA
Pressure: 30"   Gusts: NA
Location:  39.5742°N, 104.858°W
Report Text: KAPA 211853Z VRB04KT 10SM FEW150 SCT220 22/00 A3000 RMK AO2 SLP102 TCU DSNT W AND NW T02220000
Loading
Personal Weather Stations






























Interactive Weather Map
Tropical Storm Tracking
New forecast layout! Learn more

10-Day Weather Forecast

Advertisements
Track Severe Weather on mobile